Fort Lupton, Colorado
Current Conditions -  °F | °C
As of 6:55 AM on Saturday 25 Oct 2014 (Local Time) from KEIK Reporting Station
Clear Clear  
Wind Chill: 35°   Ceiling: Unl
Heat Index: 35°   Visibility: 10mi
Dew Point: 30°   Wind: 0mph
Humidity: 82%   Direction: NA
Pressure: 30.22"   Gusts: NA
Location:  40.08°N, 104.81°W
Report Text: KEIK 251255Z AUTO 00000KT 10SM CLR 02/M01 A3022 RMK AO2 T00171011
Loading
Personal Weather Stations






























Interactive Weather Map
Tropical Storm Tracking
New forecast layout! Learn more

10-Day Weather Forecast

Advertisements
Track Severe Weather on mobile